PILOTS ONLINE: 481    ATC ONLINE: 71

CYIK - Ivujivik Airport

Location

IATA YIK
City Ivujivik
Country  Canada
Latitude 62° 25' 2" N
Longitude 77° 55' 31" W
Elevation 126 ft
Type Medium Airport

Runways

08/26 3521 ft / 100 ft

Weather

METAR
2014/08/01 21:00
CYIK 012100Z CCB 28003KT 15SM FEW030 SCT080 14/07 A2999 RMK SC1AC3 LAST OBS/NEXT 021200UTC SLP159
TAF
2014/08/01 14:00
TAF CYIK 011339Z 0114/0121 VRB03KT P6SM BKN070 
      BECMG 0115/0117 18012KT SCT070 
     FM011900 30006KT P6SM FEW070 
      RMK NXT FCST WILL BE ISSUED AT 021345Z

Outbound flights

Inbound flights